sensor_id;sensor_type;location;lat;lon;timestamp;temperature;humidity
4739;DHT22;2383;48.632;10.156;2023-12-07T00:03:48;2.20;99.90
4739;DHT22;2383;48.632;10.156;2023-12-07T00:07:50;2.20;99.90
4739;DHT22;2383;48.632;10.156;2023-12-07T00:11:52;1.90;99.90
4739;DHT22;2383;48.632;10.156;2023-12-07T00:15:54;0.40;99.90
4739;DHT22;2383;48.632;10.156;2023-12-07T00:19:56;0.60;99.90
4739;DHT22;2383;48.632;10.156;2023-12-07T00:23:58;1.20;99.90
4739;DHT22;2383;48.632;10.156;2023-12-07T00:28:00;1.60;99.90
4739;DHT22;2383;48.632;10.156;2023-12-07T00:32:02;1.60;99.90
4739;DHT22;2383;48.632;10.156;2023-12-07T00:36:04;1.70;99.90
4739;DHT22;2383;48.632;10.156;2023-12-07T00:40:06;1.90;99.90
4739;DHT22;2383;48.632;10.156;2023-12-07T00:44:09;1.90;99.90
4739;DHT22;2383;48.632;10.156;2023-12-07T00:48:11;2.00;99.90
4739;DHT22;2383;48.632;10.156;2023-12-07T00:52:13;2.10;99.90
4739;DHT22;2383;48.632;10.156;2023-12-07T00:56:15;2.10;99.90
4739;DHT22;2383;48.632;10.156;2023-12-07T01:00:17;2.10;99.90
4739;DHT22;2383;48.632;10.156;2023-12-07T01:04:20;2.10;99.90
4739;DHT22;2383;48.632;10.156;2023-12-07T01:08:22;2.10;99.90
4739;DHT22;2383;48.632;10.156;2023-12-07T01:12:24;2.10;99.90
4739;DHT22;2383;48.632;10.156;2023-12-07T01:16:26;2.00;99.90
4739;DHT22;2383;48.632;10.156;2023-12-07T01:20:28;2.00;99.90
4739;DHT22;2383;48.632;10.156;2023-12-07T01:24:30;1.90;99.90
4739;DHT22;2383;48.632;10.156;2023-12-07T01:28:32;1.90;99.90
4739;DHT22;2383;48.632;10.156;2023-12-07T01:32:34;1.80;99.90
4739;DHT22;2383;48.632;10.156;2023-12-07T01:36:36;2.10;99.90
4739;DHT22;2383;48.632;10.156;2023-12-07T01:40:37;1.80;99.90
4739;DHT22;2383;48.632;10.156;2023-12-07T01:44:39;1.80;99.90
4739;DHT22;2383;48.632;10.156;2023-12-07T01:48:42;1.70;99.90
4739;DHT22;2383;48.632;10.156;2023-12-07T01:52:47;1.50;99.90
4739;DHT22;2383;48.632;10.156;2023-12-07T01:56:50;1.70;99.90
4739;DHT22;2383;48.632;10.156;2023-12-07T02:00:52;1.80;99.90
4739;DHT22;2383;48.632;10.156;2023-12-07T02:04:54;1.70;99.90
4739;DHT22;2383;48.632;10.156;2023-12-07T02:08:57;1.60;99.90
4739;DHT22;2383;48.632;10.156;2023-12-07T02:12:58;1.70;99.90
4739;DHT22;2383;48.632;10.156;2023-12-07T02:21:16;1.70;99.90
4739;DHT22;2383;48.632;10.156;2023-12-07T02:25:24;1.80;99.90
4739;DHT22;2383;48.632;10.156;2023-12-07T02:29:27;1.40;99.90
4739;DHT22;2383;48.632;10.156;2023-12-07T02:33:29;1.40;99.90
4739;DHT22;2383;48.632;10.156;2023-12-07T02:37:44;0.90;99.90
4739;DHT22;2383;48.632;10.156;2023-12-07T02:41:48;1.00;99.90
4739;DHT22;2383;48.632;10.156;2023-12-07T02:45:51;1.20;99.90
4739;DHT22;2383;48.632;10.156;2023-12-07T02:49:52;1.40;99.90
4739;DHT22;2383;48.632;10.156;2023-12-07T02:53:54;1.60;99.90
4739;DHT22;2383;48.632;10.156;2023-12-07T02:57:56;1.30;99.90
4739;DHT22;2383;48.632;10.156;2023-12-07T03:01:58;0.90;99.90
4739;DHT22;2383;48.632;10.156;2023-12-07T03:06:00;1.50;99.90
4739;DHT22;2383;48.632;10.156;2023-12-07T03:10:03;1.40;99.90
4739;DHT22;2383;48.632;10.156;2023-12-07T03:14:05;1.50;99.90
4739;DHT22;2383;48.632;10.156;2023-12-07T03:18:07;1.50;99.90
4739;DHT22;2383;48.632;10.156;2023-12-07T03:22:09;1.60;99.90
4739;DHT22;2383;48.632;10.156;2023-12-07T03:26:11;1.60;99.90
4739;DHT22;2383;48.632;10.156;2023-12-07T03:30:13;1.60;99.90
4739;DHT22;2383;48.632;10.156;2023-12-07T03:34:15;1.70;99.90
4739;DHT22;2383;48.632;10.156;2023-12-07T03:38:17;1.70;99.90
4739;DHT22;2383;48.632;10.156;2023-12-07T03:42:19;1.60;99.90
4739;DHT22;2383;48.632;10.156;2023-12-07T03:46:41;1.50;99.90
4739;DHT22;2383;48.632;10.156;2023-12-07T03:50:43;1.50;99.90
4739;DHT22;2383;48.632;10.156;2023-12-07T03:54:45;1.50;99.90
4739;DHT22;2383;48.632;10.156;2023-12-07T03:58:47;1.50;99.90
4739;DHT22;2383;48.632;10.156;2023-12-07T04:02:49;1.50;99.90
4739;DHT22;2383;48.632;10.156;2023-12-07T04:06:50;1.50;99.90
4739;DHT22;2383;48.632;10.156;2023-12-07T04:10:52;1.60;99.90
4739;DHT22;2383;48.632;10.156;2023-12-07T04:14:54;1.60;99.90
4739;DHT22;2383;48.632;10.156;2023-12-07T04:18:56;1.70;99.90
4739;DHT22;2383;48.632;10.156;2023-12-07T04:22:58;1.80;99.90
4739;DHT22;2383;48.632;10.156;2023-12-07T04:27:00;1.80;99.90
4739;DHT22;2383;48.632;10.156;2023-12-07T04:31:03;1.80;99.90
4739;DHT22;2383;48.632;10.156;2023-12-07T04:35:05;1.80;99.90
4739;DHT22;2383;48.632;10.156;2023-12-07T04:39:08;1.90;99.90
4739;DHT22;2383;48.632;10.156;2023-12-07T04:43:10;1.90;99.90
4739;DHT22;2383;48.632;10.156;2023-12-07T04:47:12;1.90;99.90
4739;DHT22;2383;48.632;10.156;2023-12-07T04:51:14;1.90;99.90
4739;DHT22;2383;48.632;10.156;2023-12-07T04:55:16;1.90;99.90
4739;DHT22;2383;48.632;10.156;2023-12-07T04:59:17;1.80;99.90
4739;DHT22;2383;48.632;10.156;2023-12-07T05:03:19;1.80;99.90
4739;DHT22;2383;48.632;10.156;2023-12-07T05:07:21;1.70;99.90
4739;DHT22;2383;48.632;10.156;2023-12-07T05:11:23;1.70;99.90
4739;DHT22;2383;48.632;10.156;2023-12-07T05:15:25;2.00;99.90
4739;DHT22;2383;48.632;10.156;2023-12-07T05:19:27;1.80;99.90
4739;DHT22;2383;48.632;10.156;2023-12-07T05:23:31;1.90;99.90
4739;DHT22;2383;48.632;10.156;2023-12-07T05:27:35;1.80;99.90
4739;DHT22;2383;48.632;10.156;2023-12-07T05:31:36;1.70;99.90
4739;DHT22;2383;48.632;10.156;2023-12-07T05:35:38;1.70;99.90
4739;DHT22;2383;48.632;10.156;2023-12-07T05:39:40;1.80;99.90
4739;DHT22;2383;48.632;10.156;2023-12-07T05:43:43;1.90;99.90
4739;DHT22;2383;48.632;10.156;2023-12-07T05:47:44;1.90;99.90
4739;DHT22;2383;48.632;10.156;2023-12-07T05:51:47;1.80;99.90
4739;DHT22;2383;48.632;10.156;2023-12-07T05:55:48;1.80;99.90
4739;DHT22;2383;48.632;10.156;2023-12-07T05:59:50;1.80;99.90
4739;DHT22;2383;48.632;10.156;2023-12-07T06:03:52;1.70;99.90
4739;DHT22;2383;48.632;10.156;2023-12-07T06:07:54;1.80;99.90
4739;DHT22;2383;48.632;10.156;2023-12-07T06:11:57;1.80;99.90
4739;DHT22;2383;48.632;10.156;2023-12-07T06:15:59;1.80;99.90
4739;DHT22;2383;48.632;10.156;2023-12-07T06:20:03;1.80;99.90
4739;DHT22;2383;48.632;10.156;2023-12-07T06:24:05;1.90;99.90
4739;DHT22;2383;48.632;10.156;2023-12-07T06:28:07;1.90;99.90
4739;DHT22;2383;48.632;10.156;2023-12-07T06:32:09;1.90;99.90
4739;DHT22;2383;48.632;10.156;2023-12-07T06:36:11;1.90;99.90
4739;DHT22;2383;48.632;10.156;2023-12-07T06:40:13;1.80;99.90
4739;DHT22;2383;48.632;10.156;2023-12-07T06:44:15;1.80;99.90
4739;DHT22;2383;48.632;10.156;2023-12-07T06:48:16;1.70;99.90
4739;DHT22;2383;48.632;10.156;2023-12-07T06:52:18;1.70;99.90
4739;DHT22;2383;48.632;10.156;2023-12-07T06:56:20;1.80;99.90
4739;DHT22;2383;48.632;10.156;2023-12-07T07:00:22;1.80;99.90
4739;DHT22;2383;48.632;10.156;2023-12-07T07:04:26;1.90;99.90
4739;DHT22;2383;48.632;10.156;2023-12-07T07:08:28;1.90;99.90
4739;DHT22;2383;48.632;10.156;2023-12-07T07:12:30;1.90;99.90
4739;DHT22;2383;48.632;10.156;2023-12-07T07:16:32;1.90;99.90
4739;DHT22;2383;48.632;10.156;2023-12-07T07:20:34;1.90;99.90
4739;DHT22;2383;48.632;10.156;2023-12-07T07:24:36;1.90;99.90
4739;DHT22;2383;48.632;10.156;2023-12-07T07:28:38;1.80;99.90
4739;DHT22;2383;48.632;10.156;2023-12-07T07:32:40;1.90;99.90
4739;DHT22;2383;48.632;10.156;2023-12-07T07:36:42;2.20;99.90
4739;DHT22;2383;48.632;10.156;2023-12-07T07:40:44;1.80;99.90
4739;DHT22;2383;48.632;10.156;2023-12-07T07:44:47;1.80;99.90
4739;DHT22;2383;48.632;10.156;2023-12-07T07:48:49;2.00;99.90
4739;DHT22;2383;48.632;10.156;2023-12-07T07:52:51;1.90;99.90
4739;DHT22;2383;48.632;10.156;2023-12-07T07:56:52;1.90;99.90
4739;DHT22;2383;48.632;10.156;2023-12-07T08:00:55;1.90;99.90
4739;DHT22;2383;48.632;10.156;2023-12-07T08:04:57;2.00;99.90
4739;DHT22;2383;48.632;10.156;2023-12-07T08:08:59;2.10;99.90
4739;DHT22;2383;48.632;10.156;2023-12-07T08:13:01;2.10;99.90
4739;DHT22;2383;48.632;10.156;2023-12-07T08:17:03;2.20;99.90
4739;DHT22;2383;48.632;10.156;2023-12-07T08:21:05;2.30;99.90
4739;DHT22;2383;48.632;10.156;2023-12-07T08:25:10;2.20;99.90
4739;DHT22;2383;48.632;10.156;2023-12-07T08:29:13;2.10;99.90
4739;DHT22;2383;48.632;10.156;2023-12-07T08:33:15;2.20;99.90
4739;DHT22;2383;48.632;10.156;2023-12-07T08:37:17;2.30;99.90
4739;DHT22;2383;48.632;10.156;2023-12-07T08:41:18;2.40;99.90
4739;DHT22;2383;48.632;10.156;2023-12-07T08:45:21;2.40;99.90
4739;DHT22;2383;48.632;10.156;2023-12-07T08:49:23;2.50;99.90
4739;DHT22;2383;48.632;10.156;2023-12-07T08:53:25;2.70;99.90
4739;DHT22;2383;48.632;10.156;2023-12-07T08:57:28;2.70;99.90
4739;DHT22;2383;48.632;10.156;2023-12-07T09:01:30;2.10;99.90
4739;DHT22;2383;48.632;10.156;2023-12-07T09:05:34;1.60;99.90
4739;DHT22;2383;48.632;10.156;2023-12-07T09:09:37;1.60;99.90
4739;DHT22;2383;48.632;10.156;2023-12-07T09:13:38;1.60;99.90
4739;DHT22;2383;48.632;10.156;2023-12-07T09:17:40;1.70;99.90
4739;DHT22;2383;48.632;10.156;2023-12-07T09:21:43;2.20;99.90
4739;DHT22;2383;48.632;10.156;2023-12-07T09:25:46;2.40;99.90
4739;DHT22;2383;48.632;10.156;2023-12-07T09:29:48;2.50;99.90
4739;DHT22;2383;48.632;10.156;2023-12-07T09:33:49;2.60;99.90
4739;DHT22;2383;48.632;10.156;2023-12-07T09:37:51;2.50;99.90
4739;DHT22;2383;48.632;10.156;2023-12-07T09:41:53;2.40;99.90
4739;DHT22;2383;48.632;10.156;2023-12-07T09:45:57;2.40;99.90
4739;DHT22;2383;48.632;10.156;2023-12-07T09:49:59;2.40;99.90
4739;DHT22;2383;48.632;10.156;2023-12-07T09:54:02;2.40;99.90
4739;DHT22;2383;48.632;10.156;2023-12-07T09:58:08;2.40;99.90
4739;DHT22;2383;48.632;10.156;2023-12-07T10:02:10;2.30;99.90
4739;DHT22;2383;48.632;10.156;2023-12-07T10:06:12;2.30;99.90
4739;DHT22;2383;48.632;10.156;2023-12-07T10:10:15;2.40;99.90
4739;DHT22;2383;48.632;10.156;2023-12-07T10:14:18;2.30;99.90
4739;DHT22;2383;48.632;10.156;2023-12-07T10:18:23;2.50;99.90
4739;DHT22;2383;48.632;10.156;2023-12-07T10:22:25;1.90;99.90
4739;DHT22;2383;48.632;10.156;2023-12-07T10:26:27;2.10;99.90
4739;DHT22;2383;48.632;10.156;2023-12-07T10:30:29;2.20;99.90
4739;DHT22;2383;48.632;10.156;2023-12-07T10:34:32;2.10;99.90
4739;DHT22;2383;48.632;10.156;2023-12-07T10:38:35;2.20;99.90
4739;DHT22;2383;48.632;10.156;2023-12-07T10:42:41;2.20;99.90
4739;DHT22;2383;48.632;10.156;2023-12-07T10:46:46;2.30;99.90
4739;DHT22;2383;48.632;10.156;2023-12-07T10:50:50;2.30;99.90
4739;DHT22;2383;48.632;10.156;2023-12-07T10:55:13;2.40;99.90
4739;DHT22;2383;48.632;10.156;2023-12-07T10:59:17;2.40;99.90
4739;DHT22;2383;48.632;10.156;2023-12-07T11:03:31;2.40;99.90
4739;DHT22;2383;48.632;10.156;2023-12-07T11:07:57;2.40;99.90
4739;DHT22;2383;48.632;10.156;2023-12-07T11:12:09;2.40;99.90
4739;DHT22;2383;48.632;10.156;2023-12-07T11:16:15;2.40;99.90
4739;DHT22;2383;48.632;10.156;2023-12-07T11:20:22;2.40;99.90
4739;DHT22;2383;48.632;10.156;2023-12-07T11:24:24;2.50;99.90
4739;DHT22;2383;48.632;10.156;2023-12-07T11:28:36;2.60;99.90
4739;DHT22;2383;48.632;10.156;2023-12-07T11:32:39;2.60;99.90
4739;DHT22;2383;48.632;10.156;2023-12-07T11:36:41;2.70;99.90
4739;DHT22;2383;48.632;10.156;2023-12-07T11:40:43;2.70;99.90
4739;DHT22;2383;48.632;10.156;2023-12-07T11:44:49;2.70;99.90
4739;DHT22;2383;48.632;10.156;2023-12-07T11:48:51;2.60;99.90
4739;DHT22;2383;48.632;10.156;2023-12-07T11:52:53;2.70;99.90
4739;DHT22;2383;48.632;10.156;2023-12-07T11:56:56;2.70;99.90
4739;DHT22;2383;48.632;10.156;2023-12-07T12:00:58;2.80;99.90
4739;DHT22;2383;48.632;10.156;2023-12-07T12:05:00;2.80;99.90
4739;DHT22;2383;48.632;10.156;2023-12-07T12:09:02;2.70;99.90
4739;DHT22;2383;48.632;10.156;2023-12-07T12:13:04;2.70;99.90
4739;DHT22;2383;48.632;10.156;2023-12-07T12:17:06;2.70;99.90
4739;DHT22;2383;48.632;10.156;2023-12-07T12:21:08;2.60;99.90
4739;DHT22;2383;48.632;10.156;2023-12-07T12:25:11;2.60;99.90
4739;DHT22;2383;48.632;10.156;2023-12-07T12:29:14;2.70;99.90
4739;DHT22;2383;48.632;10.156;2023-12-07T12:33:31;2.70;99.90
4739;DHT22;2383;48.632;10.156;2023-12-07T12:37:33;2.70;99.90
4739;DHT22;2383;48.632;10.156;2023-12-07T12:41:36;2.70;98.90
4739;DHT22;2383;48.632;10.156;2023-12-07T12:45:38;2.60;98.90
4739;DHT22;2383;48.632;10.156;2023-12-07T12:49:41;2.40;98.60
4739;DHT22;2383;48.632;10.156;2023-12-07T12:53:46;2.50;99.30
4739;DHT22;2383;48.632;10.156;2023-12-07T12:57:55;2.40;98.80
4739;DHT22;2383;48.632;10.156;2023-12-07T13:01:57;2.40;98.20
4739;DHT22;2383;48.632;10.156;2023-12-07T13:06:00;2.50;98.30
4739;DHT22;2383;48.632;10.156;2023-12-07T13:10:05;2.40;99.10
4739;DHT22;2383;48.632;10.156;2023-12-07T13:14:10;2.40;98.20
4739;DHT22;2383;48.632;10.156;2023-12-07T13:18:12;2.50;98.10
4739;DHT22;2383;48.632;10.156;2023-12-07T13:22:14;2.50;99.00
4739;DHT22;2383;48.632;10.156;2023-12-07T13:26:15;2.50;99.10
4739;DHT22;2383;48.632;10.156;2023-12-07T13:30:18;2.40;98.50
4739;DHT22;2383;48.632;10.156;2023-12-07T13:34:20;2.40;97.20
4739;DHT22;2383;48.632;10.156;2023-12-07T13:38:25;2.40;98.20
4739;DHT22;2383;48.632;10.156;2023-12-07T13:42:27;2.30;97.20
4739;DHT22;2383;48.632;10.156;2023-12-07T13:46:29;2.40;97.50
4739;DHT22;2383;48.632;10.156;2023-12-07T13:50:31;2.30;98.20
4739;DHT22;2383;48.632;10.156;2023-12-07T13:54:35;2.30;98.80
4739;DHT22;2383;48.632;10.156;2023-12-07T13:58:54;2.50;99.10
4739;DHT22;2383;48.632;10.156;2023-12-07T14:02:56;2.50;98.80
4739;DHT22;2383;48.632;10.156;2023-12-07T14:07:13;2.40;98.50
4739;DHT22;2383;48.632;10.156;2023-12-07T14:11:17;2.40;99.20
4739;DHT22;2383;48.632;10.156;2023-12-07T14:15:19;2.40;99.10
4739;DHT22;2383;48.632;10.156;2023-12-07T14:19:35;2.40;99.40
4739;DHT22;2383;48.632;10.156;2023-12-07T14:23:39;2.40;99.60
4739;DHT22;2383;48.632;10.156;2023-12-07T14:27:43;2.30;99.70
4739;DHT22;2383;48.632;10.156;2023-12-07T14:31:48;2.30;99.80
4739;DHT22;2383;48.632;10.156;2023-12-07T14:35:50;2.30;99.60
4739;DHT22;2383;48.632;10.156;2023-12-07T14:39:52;2.40;99.70
4739;DHT22;2383;48.632;10.156;2023-12-07T14:43:54;2.40;99.60
4739;DHT22;2383;48.632;10.156;2023-12-07T14:47:55;2.40;99.30
4739;DHT22;2383;48.632;10.156;2023-12-07T14:51:58;2.30;99.60
4739;DHT22;2383;48.632;10.156;2023-12-07T14:56:01;2.30;99.10
4739;DHT22;2383;48.632;10.156;2023-12-07T15:00:03;2.20;99.30
4739;DHT22;2383;48.632;10.156;2023-12-07T15:04:06;2.10;99.30
4739;DHT22;2383;48.632;10.156;2023-12-07T15:08:13;2.10;99.30
4739;DHT22;2383;48.632;10.156;2023-12-07T15:12:15;2.00;99.10
4739;DHT22;2383;48.632;10.156;2023-12-07T15:16:18;1.90;99.30
4739;DHT22;2383;48.632;10.156;2023-12-07T15:20:20;1.80;99.10
4739;DHT22;2383;48.632;10.156;2023-12-07T15:24:22;1.70;99.50
4739;DHT22;2383;48.632;10.156;2023-12-07T15:28:37;1.60;99.20
4739;DHT22;2383;48.632;10.156;2023-12-07T15:32:39;1.50;99.20
4739;DHT22;2383;48.632;10.156;2023-12-07T15:36:41;1.50;99.40
4739;DHT22;2383;48.632;10.156;2023-12-07T15:40:44;1.30;99.00
4739;DHT22;2383;48.632;10.156;2023-12-07T15:44:46;1.20;99.40
4739;DHT22;2383;48.632;10.156;2023-12-07T15:48:48;1.10;99.60
4739;DHT22;2383;48.632;10.156;2023-12-07T15:52:50;1.00;99.40
4739;DHT22;2383;48.632;10.156;2023-12-07T15:56:52;1.10;99.40
4739;DHT22;2383;48.632;10.156;2023-12-07T16:00:54;1.10;99.50
4739;DHT22;2383;48.632;10.156;2023-12-07T16:04:56;1.00;99.10
4739;DHT22;2383;48.632;10.156;2023-12-07T16:08:58;0.90;99.10
4739;DHT22;2383;48.632;10.156;2023-12-07T16:13:00;0.80;98.90
4739;DHT22;2383;48.632;10.156;2023-12-07T16:17:02;0.70;99.20
4739;DHT22;2383;48.632;10.156;2023-12-07T16:21:04;0.80;99.10
4739;DHT22;2383;48.632;10.156;2023-12-07T16:25:06;0.70;99.10
4739;DHT22;2383;48.632;10.156;2023-12-07T16:29:08;0.60;99.30
4739;DHT22;2383;48.632;10.156;2023-12-07T16:33:10;0.60;99.10
4739;DHT22;2383;48.632;10.156;2023-12-07T16:37:12;0.50;99.20
4739;DHT22;2383;48.632;10.156;2023-12-07T16:41:14;0.50;99.20
4739;DHT22;2383;48.632;10.156;2023-12-07T16:45:16;0.50;99.30
4739;DHT22;2383;48.632;10.156;2023-12-07T16:49:19;0.40;99.10
4739;DHT22;2383;48.632;10.156;2023-12-07T16:53:22;0.40;99.10
4739;DHT22;2383;48.632;10.156;2023-12-07T16:57:24;0.50;99.10
4739;DHT22;2383;48.632;10.156;2023-12-07T17:01:26;0.40;98.80
4739;DHT22;2383;48.632;10.156;2023-12-07T17:05:28;0.40;98.80
4739;DHT22;2383;48.632;10.156;2023-12-07T17:09:30;0.40;98.90
4739;DHT22;2383;48.632;10.156;2023-12-07T17:13:32;0.30;98.60
4739;DHT22;2383;48.632;10.156;2023-12-07T17:17:34;0.10;98.70
4739;DHT22;2383;48.632;10.156;2023-12-07T17:21:37;0.20;98.70
4739;DHT22;2383;48.632;10.156;2023-12-07T17:25:40;0.20;99.00
4739;DHT22;2383;48.632;10.156;2023-12-07T17:29:41;0.20;99.00
4739;DHT22;2383;48.632;10.156;2023-12-07T17:33:43;0.10;98.80
4739;DHT22;2383;48.632;10.156;2023-12-07T17:37:46;0.10;98.60
4739;DHT22;2383;48.632;10.156;2023-12-07T17:41:47;0.00;98.60
4739;DHT22;2383;48.632;10.156;2023-12-07T17:45:50;0.10;98.70
4739;DHT22;2383;48.632;10.156;2023-12-07T17:49:54;0.10;98.50
4739;DHT22;2383;48.632;10.156;2023-12-07T17:53:56;0.10;98.30
4739;DHT22;2383;48.632;10.156;2023-12-07T17:57:58;0.00;98.30
4739;DHT22;2383;48.632;10.156;2023-12-07T18:02:01;0.00;98.30
4739;DHT22;2383;48.632;10.156;2023-12-07T18:06:07;-0.10;98.20
4739;DHT22;2383;48.632;10.156;2023-12-07T18:10:10;-0.10;98.20
4739;DHT22;2383;48.632;10.156;2023-12-07T18:14:12;-0.10;98.00
4739;DHT22;2383;48.632;10.156;2023-12-07T18:18:14;-0.20;98.00
4739;DHT22;2383;48.632;10.156;2023-12-07T18:22:16;0.10;98.20
4739;DHT22;2383;48.632;10.156;2023-12-07T18:26:18;-0.30;98.20
4739;DHT22;2383;48.632;10.156;2023-12-07T18:30:20;-0.50;98.00
4739;DHT22;2383;48.632;10.156;2023-12-07T18:34:22;-0.50;98.20
4739;DHT22;2383;48.632;10.156;2023-12-07T18:38:24;-0.50;98.40
4739;DHT22;2383;48.632;10.156;2023-12-07T18:42:27;-0.60;98.10
4739;DHT22;2383;48.632;10.156;2023-12-07T18:46:29;-0.30;98.30
4739;DHT22;2383;48.632;10.156;2023-12-07T18:50:31;-0.40;98.00
4739;DHT22;2383;48.632;10.156;2023-12-07T18:54:33;-0.30;98.00
4739;DHT22;2383;48.632;10.156;2023-12-07T18:58:38;-0.50;97.90
4739;DHT22;2383;48.632;10.156;2023-12-07T19:02:40;-0.60;98.10
4739;DHT22;2383;48.632;10.156;2023-12-07T19:06:42;-0.70;98.00
4739;DHT22;2383;48.632;10.156;2023-12-07T19:10:44;-0.70;98.00
4739;DHT22;2383;48.632;10.156;2023-12-07T19:14:46;-0.60;98.20
4739;DHT22;2383;48.632;10.156;2023-12-07T19:18:48;-0.60;98.00
4739;DHT22;2383;48.632;10.156;2023-12-07T19:22:54;-0.60;97.90
4739;DHT22;2383;48.632;10.156;2023-12-07T19:26:56;-0.80;97.60
4739;DHT22;2383;48.632;10.156;2023-12-07T19:30:59;-0.90;97.90
4739;DHT22;2383;48.632;10.156;2023-12-07T19:35:01;-0.80;97.70
4739;DHT22;2383;48.632;10.156;2023-12-07T19:39:03;-0.70;98.00
4739;DHT22;2383;48.632;10.156;2023-12-07T19:43:05;-0.60;98.10
4739;DHT22;2383;48.632;10.156;2023-12-07T19:47:07;-0.90;97.90
4739;DHT22;2383;48.632;10.156;2023-12-07T19:51:09;-0.80;98.00
4739;DHT22;2383;48.632;10.156;2023-12-07T19:55:11;-1.00;97.70
4739;DHT22;2383;48.632;10.156;2023-12-07T19:59:13;-1.10;97.50
4739;DHT22;2383;48.632;10.156;2023-12-07T20:03:15;-1.10;98.00
4739;DHT22;2383;48.632;10.156;2023-12-07T20:07:17;-1.10;98.00
4739;DHT22;2383;48.632;10.156;2023-12-07T20:11:20;-1.20;97.50
4739;DHT22;2383;48.632;10.156;2023-12-07T20:15:22;-1.20;97.70
4739;DHT22;2383;48.632;10.156;2023-12-07T20:19:24;-1.10;97.30
4739;DHT22;2383;48.632;10.156;2023-12-07T20:23:26;-1.20;97.50
4739;DHT22;2383;48.632;10.156;2023-12-07T20:27:28;-1.10;97.20
4739;DHT22;2383;48.632;10.156;2023-12-07T20:31:30;-1.30;97.40
4739;DHT22;2383;48.632;10.156;2023-12-07T20:35:32;-1.30;97.20
4739;DHT22;2383;48.632;10.156;2023-12-07T20:39:34;-1.20;97.10
4739;DHT22;2383;48.632;10.156;2023-12-07T20:43:36;-1.30;96.60
4739;DHT22;2383;48.632;10.156;2023-12-07T20:47:38;-1.50;96.50
4739;DHT22;2383;48.632;10.156;2023-12-07T20:51:41;-1.50;96.40
4739;DHT22;2383;48.632;10.156;2023-12-07T20:55:43;-1.60;96.50
4739;DHT22;2383;48.632;10.156;2023-12-07T20:59:45;-1.70;96.50
4739;DHT22;2383;48.632;10.156;2023-12-07T21:03:48;-1.80;96.60
4739;DHT22;2383;48.632;10.156;2023-12-07T21:07:51;-1.70;96.70
4739;DHT22;2383;48.632;10.156;2023-12-07T21:11:53;-1.70;96.60
4739;DHT22;2383;48.632;10.156;2023-12-07T21:15:55;-1.60;96.60
4739;DHT22;2383;48.632;10.156;2023-12-07T21:19:58;-1.50;96.80
4739;DHT22;2383;48.632;10.156;2023-12-07T21:24:00;-1.50;97.00
4739;DHT22;2383;48.632;10.156;2023-12-07T21:28:02;-1.50;97.10
4739;DHT22;2383;48.632;10.156;2023-12-07T21:32:05;-1.40;97.10
4739;DHT22;2383;48.632;10.156;2023-12-07T21:36:09;-1.30;97.30
4739;DHT22;2383;48.632;10.156;2023-12-07T21:40:11;-1.30;97.20
4739;DHT22;2383;48.632;10.156;2023-12-07T21:44:14;-1.20;97.10
4739;DHT22;2383;48.632;10.156;2023-12-07T21:48:17;-1.20;97.30
4739;DHT22;2383;48.632;10.156;2023-12-07T21:52:19;-1.00;97.50
4739;DHT22;2383;48.632;10.156;2023-12-07T21:56:23;-1.10;97.60
4739;DHT22;2383;48.632;10.156;2023-12-07T22:00:25;-1.00;97.40
4739;DHT22;2383;48.632;10.156;2023-12-07T22:04:27;-0.90;97.20
4739;DHT22;2383;48.632;10.156;2023-12-07T22:08:29;-0.90;97.30
4739;DHT22;2383;48.632;10.156;2023-12-07T22:12:31;-0.90;96.90
4739;DHT22;2383;48.632;10.156;2023-12-07T22:16:33;-1.00;96.80
4739;DHT22;2383;48.632;10.156;2023-12-07T22:20:34;-1.00;96.80
4739;DHT22;2383;48.632;10.156;2023-12-07T22:24:36;-1.10;96.70
4739;DHT22;2383;48.632;10.156;2023-12-07T22:28:38;-1.10;97.00
4739;DHT22;2383;48.632;10.156;2023-12-07T22:32:40;-1.20;96.90
4739;DHT22;2383;48.632;10.156;2023-12-07T22:36:43;-1.10;97.10
4739;DHT22;2383;48.632;10.156;2023-12-07T22:40:45;-1.10;97.10
4739;DHT22;2383;48.632;10.156;2023-12-07T22:44:47;-1.00;97.20
4739;DHT22;2383;48.632;10.156;2023-12-07T22:48:50;-1.00;97.20
4739;DHT22;2383;48.632;10.156;2023-12-07T22:52:52;-1.00;97.10
4739;DHT22;2383;48.632;10.156;2023-12-07T22:56:54;-1.10;97.00
4739;DHT22;2383;48.632;10.156;2023-12-07T23:00:56;-1.20;97.20
4739;DHT22;2383;48.632;10.156;2023-12-07T23:04:58;-1.10;96.90
4739;DHT22;2383;48.632;10.156;2023-12-07T23:09:00;-1.00;97.10
4739;DHT22;2383;48.632;10.156;2023-12-07T23:13:02;-0.90;97.00
4739;DHT22;2383;48.632;10.156;2023-12-07T23:17:04;-0.90;97.30
4739;DHT22;2383;48.632;10.156;2023-12-07T23:21:10;-0.50;97.40
4739;DHT22;2383;48.632;10.156;2023-12-07T23:25:13;-0.60;97.40
4739;DHT22;2383;48.632;10.156;2023-12-07T23:29:15;-0.70;97.20
4739;DHT22;2383;48.632;10.156;2023-12-07T23:33:17;-0.50;97.30
4739;DHT22;2383;48.632;10.156;2023-12-07T23:37:19;-0.70;97.40
4739;DHT22;2383;48.632;10.156;2023-12-07T23:41:21;-0.70;97.50
4739;DHT22;2383;48.632;10.156;2023-12-07T23:45:23;-0.70;97.40
4739;DHT22;2383;48.632;10.156;2023-12-07T23:49:25;-0.70;97.70
4739;DHT22;2383;48.632;10.156;2023-12-07T23:53:27;-0.60;97.70
4739;DHT22;2383;48.632;10.156;2023-12-07T23:57:29;-0.50;97.60
